createdAt,value
2017-02-03T00:05:41.234Z,91.3
2017-02-03T00:15:52.466Z,91.5
2017-02-03T00:26:03.731Z,91.3
2017-02-03T00:36:14.983Z,90.8
2017-02-03T00:46:26.185Z,91.5
2017-02-03T00:56:37.318Z,90.2
2017-02-03T01:06:48.456Z,89.9
2017-02-03T01:16:59.612Z,91.5
2017-02-03T01:27:10.825Z,90.8
2017-02-03T01:37:22.020Z,90
2017-02-03T01:47:33.194Z,90.9
2017-02-03T01:57:44.454Z,90
2017-02-03T02:07:55.625Z,90.3
2017-02-03T02:18:06.805Z,91.6
2017-02-03T02:28:17.920Z,91.6
2017-02-03T02:38:29.091Z,91.6
2017-02-03T02:48:40.289Z,91.5
2017-02-03T02:58:51.441Z,91.6
2017-02-03T03:09:02.633Z,91.9
2017-02-03T03:19:13.838Z,92.4
2017-02-03T03:29:25.064Z,91.9
2017-02-03T03:39:36.305Z,91.6
2017-02-03T03:49:47.472Z,90.9
2017-02-03T03:59:58.616Z,91.8
2017-02-03T04:10:09.830Z,91.8
2017-02-03T04:20:21.148Z,91.3
2017-02-03T04:30:32.411Z,91.5
2017-02-03T04:40:43.611Z,90.6
2017-02-03T04:50:54.828Z,88.8
2017-02-03T05:01:05.967Z,90.5
2017-02-03T05:11:17.055Z,90.7
2017-02-03T05:21:28.113Z,90.8
2017-02-03T05:31:39.214Z,90.7
2017-02-03T05:41:50.260Z,89.9
2017-02-03T05:52:01.293Z,90.1
2017-02-03T06:02:12.296Z,89.3
2017-02-03T06:12:23.293Z,89.3
2017-02-03T06:22:34.293Z,89.1
2017-02-03T06:32:45.237Z,90.4
2017-02-03T06:42:56.183Z,90.6
2017-02-03T06:53:07.121Z,91.2
2017-02-03T07:03:18.078Z,91.2
2017-02-03T07:13:29.052Z,90.8
2017-02-03T07:23:39.935Z,90.7
2017-02-03T07:33:50.850Z,90.3
2017-02-03T07:44:01.781Z,90.1
2017-02-03T07:54:12.695Z,90.3
2017-02-03T08:04:23.495Z,90.9
2017-02-03T08:14:34.241Z,91.2
2017-02-03T08:24:44.965Z,92.5
2017-02-03T08:34:55.636Z,92.5
2017-02-03T08:45:06.362Z,91.8
2017-02-03T08:55:17.028Z,92.1
2017-02-03T09:05:27.624Z,92.2
2017-02-03T09:15:38.210Z,92.9
2017-02-03T09:25:48.728Z,93
2017-02-03T09:35:59.215Z,92.8
2017-02-03T09:46:09.626Z,92.8
2017-02-03T09:56:20.077Z,93.7
2017-02-03T10:06:30.531Z,94.5
2017-02-03T10:16:40.959Z,94.7
2017-02-03T10:26:51.339Z,94.5
2017-02-03T10:37:01.650Z,94.7
2017-02-03T10:47:11.989Z,95.3
2017-02-03T10:57:22.341Z,95.2
2017-02-03T11:07:32.668Z,95.4
2017-02-03T11:17:43.017Z,95.1
2017-02-03T11:27:53.383Z,95.3
2017-02-03T11:38:03.796Z,95
2017-02-03T11:48:14.175Z,94.5
2017-02-03T11:58:24.524Z,94.8
2017-02-03T12:08:34.724Z,94.7
2017-02-03T12:18:44.948Z,94.9
2017-02-03T12:28:55.210Z,95.2
2017-02-03T12:39:05.456Z,94.6
2017-02-03T12:49:15.640Z,94.5
2017-02-03T12:59:25.914Z,94.6
2017-02-03T13:09:36.221Z,93.8
2017-02-03T13:19:46.464Z,93.3
2017-02-03T13:29:56.678Z,92.8
2017-02-03T13:40:06.858Z,92.2
2017-02-03T13:50:17.070Z,91.4
2017-02-03T14:00:27.237Z,89.1
2017-02-03T14:10:37.113Z,87.1
2017-02-03T14:20:46.570Z,84.3
2017-02-03T14:30:55.850Z,84.6
2017-02-03T14:41:05.261Z,84.8
2017-02-03T14:51:14.994Z,82.5
2017-02-03T15:01:24.928Z,82
2017-02-03T15:11:35.021Z,82.1
2017-02-03T15:21:45.262Z,81.5
2017-02-03T15:31:55.556Z,82.2
2017-02-03T15:42:05.850Z,82.7
2017-02-03T15:52:16.244Z,82.3
2017-02-03T16:02:26.634Z,81.8
2017-02-03T16:12:37.066Z,82.1
2017-02-03T16:22:47.530Z,82.2
2017-02-03T16:32:57.960Z,82.8
2017-02-03T16:43:08.438Z,84.1
2017-02-03T16:53:18.915Z,84.9
2017-02-03T17:03:29.431Z,85.8
2017-02-03T17:13:39.933Z,87.1
2017-02-03T17:23:50.500Z,91.5
2017-02-03T17:34:01.114Z,94.1
2017-02-03T17:44:11.789Z,93.9
2017-02-03T17:54:22.458Z,94.7
2017-02-03T18:04:33.156Z,95.5
2017-02-03T18:14:43.959Z,95.7
2017-02-03T18:24:54.743Z,95.7
2017-02-03T18:35:05.637Z,95.2
2017-02-03T18:45:16.482Z,95.2
2017-02-03T18:55:27.398Z,96.5
2017-02-03T19:05:38.290Z,96.4
2017-02-03T19:15:49.203Z,94.8
2017-02-03T19:26:00.190Z,95.3
2017-02-03T19:36:11.127Z,95
2017-02-03T19:46:22.059Z,93.9
2017-02-03T19:56:32.974Z,93.2
2017-02-03T20:06:43.877Z,93
2017-02-03T20:16:54.798Z,92.5
2017-02-03T20:27:05.659Z,92.3
2017-02-03T20:37:16.532Z,92.3
2017-02-03T20:47:27.467Z,91.3
2017-02-03T20:57:38.428Z,92.3
2017-02-03T21:07:49.457Z,92.2
2017-02-03T21:18:00.496Z,92.1
2017-02-03T21:28:11.550Z,92.6
2017-02-03T21:38:22.662Z,92.1
2017-02-03T21:48:33.818Z,91.8
2017-02-03T21:58:44.959Z,90.6
2017-02-03T22:08:56.210Z,90.5
2017-02-03T22:19:07.203Z,90.8
2017-02-03T22:29:18.393Z,90.1
2017-02-03T22:39:29.687Z,90.4
2017-02-03T22:49:41.020Z,89.9
2017-02-03T22:59:52.371Z,90.5
2017-02-03T23:10:03.804Z,90.2
2017-02-03T23:20:15.166Z,88.4
2017-02-03T23:30:26.488Z,89.2
2017-02-03T23:40:37.778Z,88.5
2017-02-03T23:50:49.074Z,88.4
